テルアビブ / ベン・グリオン の空港の天気 - METARとTAF

ベン・グリオン国際空港(テルアビブ) ( LLBG / TLV ) - イスラエル ロード / テルアビブ
飛行場実況気象(Metar)
観測時間07/22 03:20 IDT (07/22 00:20 UTC)
風向・風速南 2m/s
視程10km以上
天気現象
なし
気温25℃
湿度78%
気圧1008hPa
METARLLBG 220020Z 18004KT CAVOK 25/21 Q1008 BECMG 9999 SCT020
過去の天気等 Google飛行場航空写真 Wunderground天気予報

過去48時間のMETAR

飛行場予報(TAF)
発表時間: 7/22 02:05 IDT (7/21 23:05 UTC)
予報対象時間: 22日3時 IDT ~ 23日3時 IDT
風向・風速南南東 2m/s
視程10km以上
全天の4割程度の雲 雲底高度 670m
22日4時 IDT ~ 22日9時 IDT に一時的に
全天の8割程度の雲 雲底高度 610m
22日10時 IDT ~ 22日12時 IDT に徐々に
視程10km以上
なし
22日18時 IDT ~ 22日21時 IDT に徐々に
風向・風速不定 2m/s
視程10km以上
少しの雲 雲底高度 760m
23日0時 IDT ~ 23日2時 IDT に徐々に
風向・風速南南東 2m/s
全天の4割程度の雲 雲底高度 760m
TAF LLBG 212305Z 2200/2224 15004KT 9999 SCT022
TEMPO 2201/2206 BKN020
BECMG 2207/2209 CAVOK
BECMG 2215/2218 VRB04KT 9999 FEW025
BECMG 2221/2223 15004KT SCT025 TX32/2212Z TN25/2203Z